createdAt,value
2022-10-30T00:01:22.666Z,83.50
2022-10-30T00:03:50.610Z,83.56
2022-10-30T00:06:20.971Z,83.56
2022-10-30T00:08:50.997Z,83.59
2022-10-30T00:11:18.770Z,83.68
2022-10-30T00:13:46.933Z,83.73
2022-10-30T00:16:14.697Z,83.79
2022-10-30T00:18:43.861Z,83.79
2022-10-30T00:21:16.467Z,83.87
2022-10-30T00:23:50.857Z,83.83
2022-10-30T00:26:21.542Z,83.79
2022-10-30T00:28:55.757Z,83.83
2022-10-30T00:31:24.344Z,83.85
2022-10-30T00:33:53.748Z,83.82
2022-10-30T00:36:23.791Z,83.83
2022-10-30T00:38:51.606Z,83.84
2022-10-30T00:41:23.060Z,83.88
2022-10-30T00:43:52.183Z,83.94
2022-10-30T00:46:37.863Z,83.95
2022-10-30T00:49:17.090Z,83.93
2022-10-30T00:51:55.370Z,83.89
2022-10-30T00:54:24.377Z,83.93
2022-10-30T00:56:54.653Z,83.93
2022-10-30T00:59:27.826Z,83.96
2022-10-30T01:01:56.544Z,83.96
2022-10-30T01:04:29.958Z,83.98
2022-10-30T01:07:06.131Z,83.96
2022-10-30T01:09:35.437Z,83.96
2022-10-30T01:12:03.126Z,83.95
2022-10-30T01:14:32.388Z,83.94
2022-10-30T01:17:19.592Z,84.00
2022-10-30T01:20:44.013Z,84.00
2022-10-30T01:23:48.623Z,83.97
2022-10-30T01:26:57.801Z,83.98
2022-10-30T01:29:52.005Z,83.99
2022-10-30T01:32:42.440Z,84.03
2022-10-30T01:35:24.566Z,84.03
2022-10-30T01:38:17.670Z,84.09
2022-10-30T01:40:46.192Z,84.12
2022-10-30T01:43:13.835Z,84.20
2022-10-30T01:46:08.330Z,84.20
2022-10-30T01:48:47.514Z,84.08
2022-10-30T01:51:39.517Z,84.14
2022-10-30T01:54:26.665Z,84.16
2022-10-30T01:57:20.927Z,84.23
2022-10-30T02:00:08.343Z,84.35
2022-10-30T02:02:37.679Z,84.23
2022-10-30T02:05:09.277Z,84.22
2022-10-30T02:07:38.086Z,84.26
2022-10-30T02:10:06.083Z,84.25
2022-10-30T02:12:34.613Z,84.30
2022-10-30T02:15:03.511Z,84.37
2022-10-30T02:17:32.012Z,84.41
2022-10-30T02:19:59.747Z,84.42
2022-10-30T02:22:28.308Z,84.42
2022-10-30T02:24:57.210Z,84.50
2022-10-30T02:27:24.994Z,84.45
2022-10-30T02:29:52.738Z,84.46
2022-10-30T02:32:20.359Z,84.55
2022-10-30T02:34:48.174Z,84.61
2022-10-30T02:37:15.891Z,84.70
2022-10-30T02:39:43.549Z,84.74
2022-10-30T02:42:12.355Z,84.78
2022-10-30T02:44:40.954Z,84.82
2022-10-30T02:47:09.522Z,84.86
2022-10-30T02:49:37.278Z,84.91
2022-10-30T02:52:09.307Z,85.01
2022-10-30T02:54:37.025Z,85.03
2022-10-30T02:57:04.701Z,85.05
2022-10-30T02:59:32.976Z,85.11
2022-10-30T03:02:00.801Z,85.12
2022-10-30T03:04:29.186Z,85.15
2022-10-30T03:06:57.694Z,85.16
2022-10-30T03:09:25.426Z,85.22
2022-10-30T03:11:53.099Z,85.24
2022-10-30T03:14:20.878Z,85.27
2022-10-30T03:16:48.672Z,85.28
2022-10-30T03:19:16.344Z,85.25
2022-10-30T03:21:44.034Z,85.33
2022-10-30T03:24:11.758Z,85.39
2022-10-30T03:26:39.473Z,85.42
2022-10-30T03:29:07.945Z,85.41
2022-10-30T03:31:37.141Z,85.43
2022-10-30T03:34:04.970Z,85.45
2022-10-30T03:36:32.663Z,85.45
2022-10-30T03:39:01.067Z,85.47
2022-10-30T03:41:29.584Z,85.44
2022-10-30T03:43:57.248Z,85.49
2022-10-30T03:46:25.612Z,85.49
2022-10-30T03:48:53.298Z,85.48
2022-10-30T03:51:20.932Z,85.51
2022-10-30T03:53:49.907Z,85.47
2022-10-30T03:56:17.623Z,85.48
2022-10-30T03:58:46.215Z,85.46
2022-10-30T04:01:14.723Z,85.48
2022-10-30T04:03:42.428Z,85.51
2022-10-30T04:06:10.088Z,85.52
2022-10-30T04:08:38.661Z,85.44
2022-10-30T04:11:06.428Z,85.45
2022-10-30T04:13:34.069Z,85.48
2022-10-30T04:16:03.327Z,85.51
2022-10-30T04:18:31.051Z,85.53
2022-10-30T04:21:01.711Z,85.51
2022-10-30T04:23:29.564Z,85.46
2022-10-30T04:26:01.764Z,85.52
2022-10-30T04:28:29.508Z,85.53
2022-10-30T04:30:57.131Z,85.56
2022-10-30T04:33:24.917Z,85.56
2022-10-30T04:35:52.591Z,85.56
2022-10-30T04:38:20.281Z,85.56
2022-10-30T04:40:48.854Z,85.62
2022-10-30T04:43:16.576Z,85.65
2022-10-30T04:45:44.249Z,85.60
2022-10-30T04:48:16.806Z,85.63
2022-10-30T04:50:45.750Z,85.68
2022-10-30T04:53:19.121Z,85.75
2022-10-30T04:55:47.508Z,85.82
2022-10-30T04:58:15.259Z,85.85
2022-10-30T05:00:43.955Z,85.83
2022-10-30T05:03:20.413Z,85.80
2022-10-30T05:06:03.602Z,85.82
2022-10-30T05:08:32.615Z,85.78
2022-10-30T05:11:05.504Z,85.82
2022-10-30T05:13:33.209Z,85.83
2022-10-30T05:16:00.899Z,85.82
2022-10-30T05:18:29.369Z,85.82
2022-10-30T05:20:57.094Z,85.80
2022-10-30T05:23:24.824Z,85.74
2022-10-30T05:25:52.535Z,85.71
2022-10-30T05:28:20.346Z,85.70
2022-10-30T05:30:48.002Z,85.69
2022-10-30T05:33:18.697Z,85.66
2022-10-30T05:35:47.242Z,85.64
2022-10-30T05:38:14.857Z,85.62
2022-10-30T05:40:47.122Z,85.59
2022-10-30T05:43:14.833Z,85.55
2022-10-30T05:45:42.687Z,85.50
2022-10-30T05:48:11.029Z,85.47
2022-10-30T05:50:38.729Z,85.41
2022-10-30T05:53:06.540Z,85.36
2022-10-30T05:55:34.288Z,85.32
2022-10-30T05:58:06.736Z,85.28
2022-10-30T06:00:37.385Z,85.21
2022-10-30T06:03:08.368Z,85.16
2022-10-30T06:05:38.202Z,85.13
2022-10-30T06:08:08.621Z,85.13
2022-10-30T06:10:38.544Z,85.12
2022-10-30T06:13:07.996Z,85.12
2022-10-30T06:15:35.790Z,85.12
2022-10-30T06:18:04.530Z,85.13
2022-10-30T06:20:33.037Z,85.12
2022-10-30T06:23:05.132Z,85.09
2022-10-30T06:25:40.812Z,85.08
2022-10-30T06:28:11.660Z,85.11
2022-10-30T06:30:39.440Z,85.13
2022-10-30T06:33:10.462Z,85.11
2022-10-30T06:35:38.373Z,85.19
2022-10-30T06:38:06.240Z,85.16
2022-10-30T06:40:33.973Z,85.20
2022-10-30T06:43:02.010Z,85.19
2022-10-30T06:45:30.338Z,85.20
2022-10-30T06:48:00.495Z,85.21
2022-10-30T06:50:29.721Z,85.22
2022-10-30T06:52:57.458Z,85.20
2022-10-30T06:55:25.972Z,85.19
2022-10-30T06:57:56.455Z,85.22
2022-10-30T07:00:24.404Z,85.30
2022-10-30T07:02:58.342Z,85.44
2022-10-30T07:05:27.851Z,85.49
2022-10-30T07:07:57.400Z,85.52
2022-10-30T07:10:26.119Z,85.54
2022-10-30T07:12:57.463Z,85.55
2022-10-30T07:15:26.839Z,85.58
2022-10-30T07:17:59.410Z,85.54
2022-10-30T07:20:30.015Z,85.48
2022-10-30T07:22:57.751Z,85.65
2022-10-30T07:25:25.562Z,85.69
2022-10-30T07:27:56.424Z,85.75
2022-10-30T07:30:28.242Z,85.79
2022-10-30T07:33:02.066Z,85.93
2022-10-30T07:35:34.006Z,86.02
2022-10-30T07:38:13.195Z,85.99
2022-10-30T07:40:40.961Z,85.94
2022-10-30T07:43:14.006Z,85.81
2022-10-30T07:45:45.774Z,85.74
2022-10-30T07:48:13.510Z,85.72
2022-10-30T07:50:42.355Z,85.69
2022-10-30T07:53:10.677Z,85.73
2022-10-30T07:55:38.965Z,85.62
2022-10-30T07:58:06.682Z,85.67
2022-10-30T08:00:34.817Z,85.63
2022-10-30T08:03:03.044Z,85.70
2022-10-30T08:05:31.344Z,85.79
2022-10-30T08:08:00.042Z,85.87
2022-10-30T08:10:29.511Z,85.94
2022-10-30T08:12:57.325Z,86.01
2022-10-30T08:15:25.109Z,86.08
2022-10-30T08:17:53.768Z,86.05
2022-10-30T08:20:25.054Z,86.06
2022-10-30T08:22:56.948Z,86.08
2022-10-30T08:25:31.010Z,86.09
2022-10-30T08:28:04.511Z,86.12
2022-10-30T08:30:36.269Z,86.01
2022-10-30T08:33:14.058Z,86.01
2022-10-30T08:35:51.485Z,86.03
2022-10-30T08:38:21.010Z,86.00
2022-10-30T08:40:48.772Z,86.02
2022-10-30T08:43:17.305Z,86.02
2022-10-30T08:45:45.042Z,86.05
2022-10-30T08:48:15.691Z,86.05
2022-10-30T08:50:45.417Z,86.08
2022-10-30T08:53:16.152Z,86.15
2022-10-30T08:55:44.024Z,86.15
2022-10-30T08:58:12.354Z,86.19
2022-10-30T09:00:40.851Z,86.21
2022-10-30T09:03:10.293Z,86.19
2022-10-30T09:05:38.926Z,86.13
2022-10-30T09:08:07.461Z,86.02
2022-10-30T09:10:36.741Z,85.94
2022-10-30T09:13:04.524Z,85.84
2022-10-30T09:15:33.722Z,85.75
2022-10-30T09:18:04.811Z,85.62
2022-10-30T09:20:33.354Z,85.45
2022-10-30T09:23:01.658Z,85.28
2022-10-30T09:25:31.151Z,85.15
2022-10-30T09:27:58.893Z,85.05
2022-10-30T09:30:26.733Z,84.90
2022-10-30T09:32:57.838Z,84.69
2022-10-30T09:35:26.825Z,84.53
2022-10-30T09:37:55.992Z,84.44
2022-10-30T09:40:49.197Z,84.38
2022-10-30T09:43:50.697Z,84.23
2022-10-30T09:46:31.700Z,84.00
2022-10-30T09:49:27.951Z,83.99
2022-10-30T09:52:23.278Z,83.96
2022-10-30T09:54:59.482Z,83.87
2022-10-30T09:57:58.526Z,83.77
2022-10-30T10:00:39.273Z,83.67
2022-10-30T10:03:12.926Z,83.56
2022-10-30T10:05:55.857Z,83.42
2022-10-30T10:08:38.544Z,83.30
2022-10-30T10:11:22.470Z,83.27
2022-10-30T10:14:01.885Z,83.14
2022-10-30T10:16:36.735Z,83.02
2022-10-30T10:19:09.941Z,82.94
2022-10-30T10:21:51.772Z,82.76
2022-10-30T10:24:27.093Z,82.65
2022-10-30T10:27:33.707Z,82.51
2022-10-30T10:30:11.202Z,82.41
2022-10-30T10:32:57.990Z,82.30
2022-10-30T10:36:05.653Z,82.09
2022-10-30T10:39:00.376Z,81.96
2022-10-30T10:41:53.599Z,81.72
2022-10-30T10:44:59.084Z,81.44
2022-10-30T10:47:41.849Z,81.18
2022-10-30T10:50:26.322Z,80.67
2022-10-30T10:53:05.619Z,80.50
2022-10-30T10:55:38.867Z,80.41
2022-10-30T10:58:37.015Z,80.28
2022-10-30T11:01:14.480Z,80.08
2022-10-30T11:04:11.923Z,79.96
2022-10-30T11:06:44.506Z,79.59
2022-10-30T11:09:22.234Z,79.67
2022-10-30T11:11:54.877Z,79.61
2022-10-30T11:14:28.079Z,79.76
2022-10-30T11:17:21.146Z,79.68
2022-10-30T11:19:58.032Z,79.24
2022-10-30T11:22:35.013Z,79.13
2022-10-30T11:25:27.004Z,79.06
2022-10-30T11:28:04.843Z,78.97
2022-10-30T11:30:34.806Z,79.17
2022-10-30T11:33:23.325Z,79.14
2022-10-30T11:35:52.593Z,79.07
2022-10-30T11:38:21.568Z,79.07
2022-10-30T11:40:52.870Z,78.91
2022-10-30T11:43:25.904Z,79.23
2022-10-30T11:45:55.199Z,79.32
2022-10-30T11:48:33.436Z,79.31
2022-10-30T11:51:04.506Z,79.40
2022-10-30T11:53:42.695Z,79.03
2022-10-30T11:56:24.606Z,78.97
2022-10-30T11:58:55.913Z,79.01
2022-10-30T12:01:28.188Z,78.80
2022-10-30T12:03:57.299Z,78.57
2022-10-30T12:06:30.269Z,78.59
2022-10-30T12:09:12.765Z,78.41
2022-10-30T12:11:45.462Z,78.37
2022-10-30T12:14:29.648Z,78.33
2022-10-30T12:16:59.828Z,78.24
2022-10-30T12:19:33.045Z,78.32
2022-10-30T12:22:02.492Z,78.05
2022-10-30T12:24:36.811Z,77.95
2022-10-30T12:27:19.833Z,78.29
2022-10-30T12:30:09.862Z,78.34
2022-10-30T12:32:59.312Z,78.54
2022-10-30T12:35:52.003Z,78.44
2022-10-30T12:38:46.074Z,78.17
2022-10-30T12:41:24.866Z,77.95
2022-10-30T12:44:13.727Z,77.94
2022-10-30T12:46:54.844Z,78.05
2022-10-30T12:49:47.454Z,77.96
2022-10-30T12:52:19.564Z,78.32
2022-10-30T12:54:54.411Z,78.45
2022-10-30T12:57:29.072Z,78.29
2022-10-30T13:00:14.919Z,78.29
2022-10-30T13:02:51.732Z,78.79
2022-10-30T13:05:35.640Z,79.14
2022-10-30T13:08:21.661Z,78.95
2022-10-30T13:10:58.233Z,78.78
2022-10-30T13:13:37.263Z,78.63
2022-10-30T13:16:14.157Z,78.45
2022-10-30T13:18:42.075Z,78.48
2022-10-30T13:21:12.508Z,78.89
2022-10-30T13:23:51.460Z,79.20
2022-10-30T13:26:41.811Z,79.30
2022-10-30T13:29:12.486Z,79.51
2022-10-30T13:32:13.182Z,79.11
2022-10-30T13:34:59.929Z,78.91
2022-10-30T13:37:48.376Z,78.67
2022-10-30T13:40:41.236Z,78.73
2022-10-30T13:43:53.519Z,78.67
2022-10-30T13:46:48.872Z,78.52
2022-10-30T13:49:39.788Z,78.94
2022-10-30T13:52:15.673Z,79.17
2022-10-30T13:54:58.381Z,79.00
2022-10-30T13:57:39.807Z,79.01
2022-10-30T14:00:34.810Z,78.49
2022-10-30T14:03:24.097Z,78.83
2022-10-30T14:06:04.476Z,78.25
2022-10-30T14:09:00.224Z,77.97
2022-10-30T14:11:30.067Z,78.23
2022-10-30T14:14:23.333Z,78.02
2022-10-30T14:17:11.598Z,77.75
2022-10-30T14:20:13.363Z,77.61
2022-10-30T14:22:42.420Z,77.78
2022-10-30T14:25:16.561Z,78.56
2022-10-30T14:27:57.225Z,78.34
2022-10-30T14:30:29.011Z,78.31
2022-10-30T14:32:58.666Z,78.56
2022-10-30T14:35:33.267Z,78.89
2022-10-30T14:38:07.307Z,78.87
2022-10-30T14:40:53.963Z,78.76
2022-10-30T14:43:36.962Z,79.25
2022-10-30T14:46:27.023Z,78.95
2022-10-30T14:49:27.069Z,79.34
2022-10-30T14:52:18.801Z,79.68
2022-10-30T14:55:12.925Z,79.41
2022-10-30T14:57:53.722Z,79.69
2022-10-30T15:00:26.201Z,79.89
2022-10-30T15:03:12.502Z,79.82
2022-10-30T15:05:53.488Z,79.70
2022-10-30T15:08:43.086Z,79.78
2022-10-30T15:11:30.261Z,79.93
2022-10-30T15:14:16.210Z,80.18
2022-10-30T15:16:54.594Z,80.32
2022-10-30T15:19:25.931Z,80.54
2022-10-30T15:21:57.156Z,80.65
2022-10-30T15:24:32.316Z,80.93
2022-10-30T15:27:02.893Z,80.94
2022-10-30T15:29:37.652Z,81.11
2022-10-30T15:32:19.278Z,81.03
2022-10-30T15:35:05.574Z,81.08
2022-10-30T15:37:33.489Z,81.23
2022-10-30T15:40:22.380Z,81.31
2022-10-30T15:42:53.101Z,81.48
2022-10-30T15:45:39.110Z,81.55
2022-10-30T15:48:28.996Z,81.80
2022-10-30T15:51:17.963Z,81.87
2022-10-30T15:54:00.646Z,81.92
2022-10-30T15:57:31.303Z,82.03
2022-10-30T15:59:57.251Z,82.13
2022-10-30T16:02:30.432Z,82.15
2022-10-30T16:04:58.116Z,82.27
2022-10-30T16:07:29.915Z,82.33
2022-10-30T16:10:02.537Z,82.46
2022-10-30T16:12:34.523Z,82.51
2022-10-30T16:15:19.012Z,82.53
2022-10-30T16:18:21.588Z,82.71
2022-10-30T16:20:54.093Z,82.68
2022-10-30T16:23:24.755Z,82.68
2022-10-30T16:25:58.704Z,82.82
2022-10-30T16:28:37.736Z,82.94
2022-10-30T16:31:14.385Z,83.13
2022-10-30T16:33:46.948Z,83.16
2022-10-30T16:36:18.534Z,83.22
2022-10-30T16:38:48.716Z,83.29
2022-10-30T16:41:22.705Z,83.38
2022-10-30T16:44:13.263Z,83.35
2022-10-30T16:46:53.325Z,83.43
2022-10-30T16:49:31.969Z,83.34
2022-10-30T16:52:05.470Z,83.24
2022-10-30T16:54:41.889Z,83.01
2022-10-30T16:57:39.680Z,82.95
2022-10-30T17:00:24.433Z,82.97
2022-10-30T17:03:06.425Z,82.94
2022-10-30T17:05:37.160Z,82.98
2022-10-30T17:08:41.859Z,82.97
2022-10-30T17:11:20.232Z,82.92
2022-10-30T17:13:54.090Z,82.82
2022-10-30T17:16:36.287Z,82.60
2022-10-30T17:19:22.609Z,82.47
2022-10-30T17:21:53.445Z,82.31
2022-10-30T17:24:31.551Z,82.19
2022-10-30T17:27:04.225Z,82.10
2022-10-30T17:29:37.946Z,82.01
2022-10-30T17:32:24.721Z,81.93
2022-10-30T17:35:09.704Z,81.85
2022-10-30T17:37:37.554Z,81.77
2022-10-30T17:40:06.615Z,81.70
2022-10-30T17:42:35.391Z,81.62
2022-10-30T17:45:10.731Z,81.59
2022-10-30T17:47:38.709Z,81.56
2022-10-30T17:50:09.786Z,81.56
2022-10-30T17:52:37.507Z,81.53
2022-10-30T17:55:27.898Z,81.54
2022-10-30T17:57:56.209Z,81.55
2022-10-30T18:00:23.914Z,81.55
2022-10-30T18:02:51.727Z,81.58
2022-10-30T18:05:35.202Z,81.62
2022-10-30T18:08:02.976Z,81.66
2022-10-30T18:10:31.246Z,81.69
2022-10-30T18:12:59.869Z,81.75
2022-10-30T18:15:40.951Z,81.82
2022-10-30T18:18:08.661Z,81.94
2022-10-30T18:20:37.961Z,82.04
2022-10-30T18:23:46.746Z,82.11
2022-10-30T18:26:17.236Z,82.14
2022-10-30T18:28:47.339Z,82.14
2022-10-30T18:31:20.305Z,82.14
2022-10-30T18:33:50.060Z,82.19
2022-10-30T18:36:22.025Z,82.22
2022-10-30T18:38:56.166Z,82.30
2022-10-30T18:41:34.520Z,82.27
2022-10-30T18:44:04.431Z,82.22
2022-10-30T18:46:34.908Z,82.28
2022-10-30T18:49:02.650Z,82.34
2022-10-30T18:51:32.127Z,82.30
2022-10-30T18:54:02.141Z,82.38
2022-10-30T18:56:34.630Z,82.46
2022-10-30T18:59:02.850Z,82.49
2022-10-30T19:01:33.335Z,82.48
2022-10-30T19:04:04.070Z,82.49
2022-10-30T19:06:34.555Z,82.55
2022-10-30T19:09:02.780Z,82.60
2022-10-30T19:11:31.873Z,82.60
2022-10-30T19:14:01.541Z,82.64
2022-10-30T19:16:29.355Z,82.68
2022-10-30T19:18:57.104Z,82.72
2022-10-30T19:21:28.197Z,82.73
2022-10-30T19:24:01.844Z,82.75
2022-10-30T19:26:29.872Z,82.73
2022-10-30T19:28:57.911Z,82.80
2022-10-30T19:31:27.245Z,82.88
2022-10-30T19:33:57.441Z,82.98
2022-10-30T19:36:28.393Z,83.03
2022-10-30T19:38:58.240Z,83.08
2022-10-30T19:41:27.732Z,83.12
2022-10-30T19:43:56.834Z,83.12
2022-10-30T19:46:25.130Z,83.18
2022-10-30T19:48:57.740Z,83.28
2022-10-30T19:51:28.990Z,83.28
2022-10-30T19:53:58.468Z,83.37
2022-10-30T19:56:26.524Z,83.41
2022-10-30T19:58:54.174Z,83.47
2022-10-30T20:01:22.223Z,83.51
2022-10-30T20:03:51.165Z,83.52
2022-10-30T20:06:19.568Z,83.55
2022-10-30T20:08:47.472Z,83.57
2022-10-30T20:11:15.263Z,83.66
2022-10-30T20:13:42.937Z,83.69
2022-10-30T20:16:11.104Z,83.73
2022-10-30T20:18:39.078Z,83.77
2022-10-30T20:21:11.484Z,83.79
2022-10-30T20:23:39.612Z,83.82
2022-10-30T20:26:27.168Z,83.86
2022-10-30T20:28:56.612Z,83.92
2022-10-30T20:31:26.132Z,83.93
2022-10-30T20:33:55.635Z,83.97
2022-10-30T20:36:23.555Z,83.97
2022-10-30T20:38:51.419Z,83.98
2022-10-30T20:41:25.998Z,84.01
2022-10-30T20:43:53.701Z,84.05
2022-10-30T20:46:23.043Z,84.09
2022-10-30T20:48:52.163Z,84.12
2022-10-30T20:51:20.061Z,84.20
2022-10-30T20:53:52.387Z,84.21
2022-10-30T20:56:20.287Z,84.24
2022-10-30T20:58:49.697Z,84.25
2022-10-30T21:01:17.720Z,84.33
2022-10-30T21:03:52.042Z,84.42
2022-10-30T21:06:19.716Z,84.47
2022-10-30T21:08:47.565Z,84.51
2022-10-30T21:11:15.344Z,84.54
2022-10-30T21:13:43.576Z,84.60
2022-10-30T21:16:11.417Z,84.69
2022-10-30T21:18:39.359Z,84.80
2022-10-30T21:21:13.171Z,84.87
2022-10-30T21:23:42.328Z,84.96
2022-10-30T21:26:13.826Z,84.85
2022-10-30T21:28:41.733Z,84.70
2022-10-30T21:31:13.775Z,84.72
2022-10-30T21:33:41.518Z,85.15
2022-10-30T21:36:16.049Z,84.95
2022-10-30T21:38:46.284Z,84.97
2022-10-30T21:41:18.962Z,85.10
2022-10-30T21:43:54.331Z,85.10
2022-10-30T21:46:26.652Z,85.33
2022-10-30T21:48:56.679Z,85.80
2022-10-30T21:51:27.951Z,86.24
2022-10-30T21:53:57.569Z,86.38
2022-10-30T21:56:28.902Z,86.53
2022-10-30T21:59:00.351Z,86.73
2022-10-30T22:01:31.974Z,86.69
2022-10-30T22:04:02.370Z,86.68
2022-10-30T22:06:31.711Z,86.71
2022-10-30T22:09:01.417Z,86.67
2022-10-30T22:11:29.246Z,86.66
2022-10-30T22:14:00.852Z,86.68
2022-10-30T22:16:31.123Z,86.68
2022-10-30T22:19:00.728Z,86.68
2022-10-30T22:21:30.926Z,86.70
2022-10-30T22:24:01.330Z,86.69
2022-10-30T22:26:29.217Z,86.68
2022-10-30T22:29:00.350Z,86.73
2022-10-30T22:31:30.712Z,86.77
2022-10-30T22:34:03.390Z,86.73
2022-10-30T22:36:33.045Z,86.85
2022-10-30T22:39:05.137Z,86.99
2022-10-30T22:41:37.626Z,86.92
2022-10-30T22:44:12.775Z,86.92
2022-10-30T22:46:41.461Z,86.98
2022-10-30T22:49:09.362Z,86.98
2022-10-30T22:51:40.067Z,87.07
2022-10-30T22:54:13.798Z,87.15
2022-10-30T22:56:42.971Z,87.21
2022-10-30T22:59:13.621Z,87.16
2022-10-30T23:01:42.184Z,87.29
2022-10-30T23:04:16.057Z,87.22
2022-10-30T23:06:45.897Z,87.31
2022-10-30T23:09:22.184Z,87.35
2022-10-30T23:11:51.866Z,87.38
2022-10-30T23:14:19.633Z,87.48
2022-10-30T23:16:47.414Z,87.78
2022-10-30T23:19:16.622Z,87.72
2022-10-30T23:21:44.275Z,87.69
2022-10-30T23:24:11.999Z,87.96
2022-10-30T23:26:39.692Z,87.98
2022-10-30T23:29:09.346Z,88.12
2022-10-30T23:31:41.339Z,88.21
2022-10-30T23:34:13.259Z,88.20
2022-10-30T23:36:42.702Z,88.19
2022-10-30T23:39:16.862Z,88.22
2022-10-30T23:41:46.652Z,88.20
2022-10-30T23:44:17.165Z,88.30
2022-10-30T23:46:46.466Z,88.27
2022-10-30T23:49:14.141Z,88.39
2022-10-30T23:51:41.897Z,88.54
2022-10-30T23:54:09.724Z,88.66
2022-10-30T23:56:39.064Z,88.76
2022-10-30T23:59:10.508Z,88.78
